sensor_id;sensor_type;location;lat;lon;timestamp;temperature;humidity
7708;DHT22;3896;48.758;8.888;2023-04-08T00:00:33;9.50;99.90
7708;DHT22;3896;48.758;8.888;2023-04-08T00:02:59;9.40;99.90
7708;DHT22;3896;48.758;8.888;2023-04-08T00:05:25;9.40;99.90
7708;DHT22;3896;48.758;8.888;2023-04-08T00:07:50;9.40;99.90
7708;DHT22;3896;48.758;8.888;2023-04-08T00:10:16;9.40;99.90
7708;DHT22;3896;48.758;8.888;2023-04-08T00:12:42;9.40;99.90
7708;DHT22;3896;48.758;8.888;2023-04-08T00:15:07;9.40;99.90
7708;DHT22;3896;48.758;8.888;2023-04-08T00:17:33;9.40;99.90
7708;DHT22;3896;48.758;8.888;2023-04-08T00:19:58;9.40;99.90
7708;DHT22;3896;48.758;8.888;2023-04-08T00:22:24;9.40;99.90
7708;DHT22;3896;48.758;8.888;2023-04-08T00:24:50;9.40;99.90
7708;DHT22;3896;48.758;8.888;2023-04-08T00:27:16;9.40;99.90
7708;DHT22;3896;48.758;8.888;2023-04-08T00:29:41;9.30;99.90
7708;DHT22;3896;48.758;8.888;2023-04-08T00:32:07;9.30;99.90
7708;DHT22;3896;48.758;8.888;2023-04-08T00:34:32;9.30;99.90
7708;DHT22;3896;48.758;8.888;2023-04-08T00:36:58;9.30;99.90
7708;DHT22;3896;48.758;8.888;2023-04-08T00:39:23;9.30;99.90
7708;DHT22;3896;48.758;8.888;2023-04-08T00:41:49;9.30;99.90
7708;DHT22;3896;48.758;8.888;2023-04-08T00:44:15;9.30;99.90
7708;DHT22;3896;48.758;8.888;2023-04-08T00:46:40;9.40;99.90
7708;DHT22;3896;48.758;8.888;2023-04-08T00:49:06;9.30;99.90
7708;DHT22;3896;48.758;8.888;2023-04-08T00:51:32;9.30;99.90
7708;DHT22;3896;48.758;8.888;2023-04-08T00:54:01;9.30;99.90
7708;DHT22;3896;48.758;8.888;2023-04-08T00:56:28;9.30;99.90
7708;DHT22;3896;48.758;8.888;2023-04-08T00:58:55;9.30;99.90
7708;DHT22;3896;48.758;8.888;2023-04-08T01:01:50;9.30;99.90
7708;DHT22;3896;48.758;8.888;2023-04-08T01:07:33;9.30;99.90
7708;DHT22;3896;48.758;8.888;2023-04-08T01:10:22;9.30;99.90
7708;DHT22;3896;48.758;8.888;2023-04-08T01:13:04;9.20;99.90
7708;DHT22;3896;48.758;8.888;2023-04-08T01:15:35;9.20;99.90
7708;DHT22;3896;48.758;8.888;2023-04-08T01:18:05;9.20;99.90
7708;DHT22;3896;48.758;8.888;2023-04-08T01:20:31;9.20;99.90
7708;DHT22;3896;48.758;8.888;2023-04-08T01:25:49;9.20;99.90
7708;DHT22;3896;48.758;8.888;2023-04-08T01:28:17;9.20;99.90
7708;DHT22;3896;48.758;8.888;2023-04-08T01:30:44;9.20;99.90
7708;DHT22;3896;48.758;8.888;2023-04-08T01:33:12;9.20;99.90
7708;DHT22;3896;48.758;8.888;2023-04-08T01:35:38;9.20;99.90
7708;DHT22;3896;48.758;8.888;2023-04-08T01:38:06;9.20;99.90
7708;DHT22;3896;48.758;8.888;2023-04-08T01:40:34;9.20;99.90
7708;DHT22;3896;48.758;8.888;2023-04-08T01:43:03;9.20;99.90
7708;DHT22;3896;48.758;8.888;2023-04-08T01:45:29;9.30;99.90
7708;DHT22;3896;48.758;8.888;2023-04-08T01:47:55;9.30;99.90
7708;DHT22;3896;48.758;8.888;2023-04-08T01:50:22;9.30;99.90
7708;DHT22;3896;48.758;8.888;2023-04-08T01:52:50;9.20;99.90
7708;DHT22;3896;48.758;8.888;2023-04-08T01:55:18;9.20;99.90
7708;DHT22;3896;48.758;8.888;2023-04-08T01:57:52;9.20;99.90
7708;DHT22;3896;48.758;8.888;2023-04-08T02:00:21;9.20;99.90
7708;DHT22;3896;48.758;8.888;2023-04-08T02:02:49;9.20;99.90
7708;DHT22;3896;48.758;8.888;2023-04-08T02:05:15;9.20;99.90
7708;DHT22;3896;48.758;8.888;2023-04-08T02:07:40;9.10;99.90
7708;DHT22;3896;48.758;8.888;2023-04-08T02:10:06;9.10;99.90
7708;DHT22;3896;48.758;8.888;2023-04-08T02:12:32;9.10;99.90
7708;DHT22;3896;48.758;8.888;2023-04-08T02:14:58;9.10;99.90
7708;DHT22;3896;48.758;8.888;2023-04-08T02:17:45;9.10;99.90
7708;DHT22;3896;48.758;8.888;2023-04-08T02:20:18;9.10;99.90
7708;DHT22;3896;48.758;8.888;2023-04-08T02:23:09;9.10;99.90
7708;DHT22;3896;48.758;8.888;2023-04-08T02:25:39;9.00;99.90
7708;DHT22;3896;48.758;8.888;2023-04-08T02:28:09;9.10;99.90
7708;DHT22;3896;48.758;8.888;2023-04-08T02:30:36;9.10;99.90
7708;DHT22;3896;48.758;8.888;2023-04-08T02:33:03;9.10;99.90
7708;DHT22;3896;48.758;8.888;2023-04-08T02:35:30;9.10;99.90
7708;DHT22;3896;48.758;8.888;2023-04-08T02:37:56;9.10;99.90
7708;DHT22;3896;48.758;8.888;2023-04-08T02:40:29;9.10;99.90
7708;DHT22;3896;48.758;8.888;2023-04-08T02:42:56;9.10;99.90
7708;DHT22;3896;48.758;8.888;2023-04-08T02:45:29;9.10;99.90
7708;DHT22;3896;48.758;8.888;2023-04-08T02:47:56;9.10;99.90
7708;DHT22;3896;48.758;8.888;2023-04-08T02:50:21;9.10;99.90
7708;DHT22;3896;48.758;8.888;2023-04-08T02:52:47;9.00;99.90
7708;DHT22;3896;48.758;8.888;2023-04-08T02:55:12;9.00;99.90
7708;DHT22;3896;48.758;8.888;2023-04-08T02:57:39;9.00;99.90
7708;DHT22;3896;48.758;8.888;2023-04-08T03:00:06;9.00;99.90
7708;DHT22;3896;48.758;8.888;2023-04-08T03:02:32;9.00;99.90
7708;DHT22;3896;48.758;8.888;2023-04-08T03:04:57;9.00;99.90
7708;DHT22;3896;48.758;8.888;2023-04-08T03:07:23;9.00;99.90
7708;DHT22;3896;48.758;8.888;2023-04-08T03:09:48;9.00;99.90
7708;DHT22;3896;48.758;8.888;2023-04-08T03:12:14;9.00;99.90
7708;DHT22;3896;48.758;8.888;2023-04-08T03:14:39;9.00;99.90
7708;DHT22;3896;48.758;8.888;2023-04-08T03:17:05;9.00;99.90
7708;DHT22;3896;48.758;8.888;2023-04-08T03:19:30;9.00;99.90
7708;DHT22;3896;48.758;8.888;2023-04-08T03:21:56;8.90;99.90
7708;DHT22;3896;48.758;8.888;2023-04-08T03:24:21;8.90;99.90
7708;DHT22;3896;48.758;8.888;2023-04-08T03:26:47;8.90;99.90
7708;DHT22;3896;48.758;8.888;2023-04-08T03:29:12;8.90;99.90
7708;DHT22;3896;48.758;8.888;2023-04-08T03:31:39;8.90;99.90
7708;DHT22;3896;48.758;8.888;2023-04-08T03:34:05;8.90;99.90
7708;DHT22;3896;48.758;8.888;2023-04-08T03:36:30;8.90;99.90
7708;DHT22;3896;48.758;8.888;2023-04-08T03:38:56;8.90;99.90
7708;DHT22;3896;48.758;8.888;2023-04-08T03:41:22;8.90;99.90
7708;DHT22;3896;48.758;8.888;2023-04-08T03:43:47;8.90;99.90
7708;DHT22;3896;48.758;8.888;2023-04-08T03:46:13;8.90;99.90
7708;DHT22;3896;48.758;8.888;2023-04-08T03:48:38;8.90;99.90
7708;DHT22;3896;48.758;8.888;2023-04-08T03:51:04;8.90;99.90
7708;DHT22;3896;48.758;8.888;2023-04-08T03:53:30;8.90;99.90
7708;DHT22;3896;48.758;8.888;2023-04-08T03:55:56;8.90;99.90
7708;DHT22;3896;48.758;8.888;2023-04-08T03:58:21;8.90;99.90
7708;DHT22;3896;48.758;8.888;2023-04-08T04:00:47;8.90;99.90
7708;DHT22;3896;48.758;8.888;2023-04-08T04:03:12;8.80;99.90
7708;DHT22;3896;48.758;8.888;2023-04-08T04:05:39;8.90;99.90
7708;DHT22;3896;48.758;8.888;2023-04-08T04:08:05;8.80;99.90
7708;DHT22;3896;48.758;8.888;2023-04-08T04:10:31;8.80;99.90
7708;DHT22;3896;48.758;8.888;2023-04-08T04:12:56;8.80;99.90
7708;DHT22;3896;48.758;8.888;2023-04-08T04:15:22;8.80;99.90
7708;DHT22;3896;48.758;8.888;2023-04-08T04:17:48;8.80;99.90
7708;DHT22;3896;48.758;8.888;2023-04-08T04:20:17;8.80;99.90
7708;DHT22;3896;48.758;8.888;2023-04-08T04:22:43;8.80;99.90
7708;DHT22;3896;48.758;8.888;2023-04-08T04:25:09;8.80;99.90
7708;DHT22;3896;48.758;8.888;2023-04-08T04:27:35;8.80;99.90
7708;DHT22;3896;48.758;8.888;2023-04-08T04:30:04;8.70;99.90
7708;DHT22;3896;48.758;8.888;2023-04-08T04:32:30;8.70;99.90
7708;DHT22;3896;48.758;8.888;2023-04-08T04:34:55;8.70;99.90
7708;DHT22;3896;48.758;8.888;2023-04-08T04:37:21;8.70;99.90
7708;DHT22;3896;48.758;8.888;2023-04-08T04:39:46;8.70;99.90
7708;DHT22;3896;48.758;8.888;2023-04-08T04:42:12;8.70;99.90
7708;DHT22;3896;48.758;8.888;2023-04-08T04:44:37;8.60;99.90
7708;DHT22;3896;48.758;8.888;2023-04-08T04:47:03;8.60;99.90
7708;DHT22;3896;48.758;8.888;2023-04-08T04:49:28;8.60;99.90
7708;DHT22;3896;48.758;8.888;2023-04-08T04:51:54;8.60;99.90
7708;DHT22;3896;48.758;8.888;2023-04-08T04:54:20;8.60;99.90
7708;DHT22;3896;48.758;8.888;2023-04-08T04:56:45;8.60;99.90
7708;DHT22;3896;48.758;8.888;2023-04-08T04:59:11;8.60;99.90
7708;DHT22;3896;48.758;8.888;2023-04-08T05:01:36;8.60;99.90
7708;DHT22;3896;48.758;8.888;2023-04-08T05:04:02;8.60;99.90
7708;DHT22;3896;48.758;8.888;2023-04-08T05:06:28;8.60;99.90
7708;DHT22;3896;48.758;8.888;2023-04-08T05:08:53;8.60;99.90
7708;DHT22;3896;48.758;8.888;2023-04-08T05:11:19;8.50;99.90
7708;DHT22;3896;48.758;8.888;2023-04-08T05:13:46;8.50;99.90
7708;DHT22;3896;48.758;8.888;2023-04-08T05:16:12;8.50;99.90
7708;DHT22;3896;48.758;8.888;2023-04-08T05:18:37;8.50;99.90
7708;DHT22;3896;48.758;8.888;2023-04-08T05:21:03;8.50;99.90
7708;DHT22;3896;48.758;8.888;2023-04-08T05:23:29;8.50;99.90
7708;DHT22;3896;48.758;8.888;2023-04-08T05:25:54;8.50;99.90
7708;DHT22;3896;48.758;8.888;2023-04-08T05:28:21;8.50;99.90
7708;DHT22;3896;48.758;8.888;2023-04-08T05:30:50;8.50;99.90
7708;DHT22;3896;48.758;8.888;2023-04-08T05:33:16;8.50;99.90
7708;DHT22;3896;48.758;8.888;2023-04-08T05:35:41;8.50;99.90
7708;DHT22;3896;48.758;8.888;2023-04-08T05:38:07;8.50;99.90
7708;DHT22;3896;48.758;8.888;2023-04-08T05:40:33;8.60;99.90
7708;DHT22;3896;48.758;8.888;2023-04-08T05:42:58;8.60;99.90
7708;DHT22;3896;48.758;8.888;2023-04-08T05:45:24;8.60;99.90
7708;DHT22;3896;48.758;8.888;2023-04-08T05:47:49;8.60;99.90
7708;DHT22;3896;48.758;8.888;2023-04-08T05:50:15;8.60;99.90
7708;DHT22;3896;48.758;8.888;2023-04-08T05:52:42;8.60;99.90
7708;DHT22;3896;48.758;8.888;2023-04-08T05:55:08;8.60;99.90
7708;DHT22;3896;48.758;8.888;2023-04-08T05:57:34;8.70;99.90
7708;DHT22;3896;48.758;8.888;2023-04-08T05:59:59;8.70;99.90
7708;DHT22;3896;48.758;8.888;2023-04-08T06:02:25;8.70;99.90
7708;DHT22;3896;48.758;8.888;2023-04-08T06:04:50;8.70;99.90
7708;DHT22;3896;48.758;8.888;2023-04-08T06:07:16;8.70;99.90
7708;DHT22;3896;48.758;8.888;2023-04-08T06:09:42;8.70;99.90
7708;DHT22;3896;48.758;8.888;2023-04-08T06:12:07;8.70;99.90
7708;DHT22;3896;48.758;8.888;2023-04-08T06:14:33;8.80;99.90
7708;DHT22;3896;48.758;8.888;2023-04-08T06:16:58;8.80;99.90
7708;DHT22;3896;48.758;8.888;2023-04-08T06:19:24;8.80;99.90
7708;DHT22;3896;48.758;8.888;2023-04-08T06:21:49;8.80;99.90
7708;DHT22;3896;48.758;8.888;2023-04-08T06:24:16;8.80;99.90
7708;DHT22;3896;48.758;8.888;2023-04-08T06:26:41;8.80;99.90
7708;DHT22;3896;48.758;8.888;2023-04-08T06:29:07;8.80;99.90
7708;DHT22;3896;48.758;8.888;2023-04-08T06:31:33;8.90;99.90
7708;DHT22;3896;48.758;8.888;2023-04-08T06:33:59;8.90;99.90
7708;DHT22;3896;48.758;8.888;2023-04-08T06:36:24;8.90;99.90
7708;DHT22;3896;48.758;8.888;2023-04-08T06:38:50;8.90;99.90
7708;DHT22;3896;48.758;8.888;2023-04-08T06:41:16;8.90;99.90
7708;DHT22;3896;48.758;8.888;2023-04-08T06:43:41;9.00;99.90
7708;DHT22;3896;48.758;8.888;2023-04-08T06:46:07;9.00;99.90
7708;DHT22;3896;48.758;8.888;2023-04-08T06:48:32;9.00;99.90
7708;DHT22;3896;48.758;8.888;2023-04-08T06:50:59;9.10;99.90
7708;DHT22;3896;48.758;8.888;2023-04-08T06:53:26;9.10;99.90
7708;DHT22;3896;48.758;8.888;2023-04-08T06:55:53;9.10;99.90
7708;DHT22;3896;48.758;8.888;2023-04-08T06:58:19;9.10;99.90
7708;DHT22;3896;48.758;8.888;2023-04-08T07:00:45;9.20;99.90
7708;DHT22;3896;48.758;8.888;2023-04-08T07:03:11;9.20;99.90
7708;DHT22;3896;48.758;8.888;2023-04-08T07:05:37;9.20;99.90
7708;DHT22;3896;48.758;8.888;2023-04-08T07:08:03;9.30;99.90
7708;DHT22;3896;48.758;8.888;2023-04-08T07:10:29;9.30;99.90
7708;DHT22;3896;48.758;8.888;2023-04-08T07:12:56;9.30;99.90
7708;DHT22;3896;48.758;8.888;2023-04-08T07:15:21;9.40;99.90
7708;DHT22;3896;48.758;8.888;2023-04-08T07:17:47;9.40;99.90
7708;DHT22;3896;48.758;8.888;2023-04-08T07:20:12;9.40;99.90
7708;DHT22;3896;48.758;8.888;2023-04-08T07:22:41;9.50;99.90
7708;DHT22;3896;48.758;8.888;2023-04-08T07:25:07;9.50;99.90
7708;DHT22;3896;48.758;8.888;2023-04-08T07:27:33;9.50;99.90
7708;DHT22;3896;48.758;8.888;2023-04-08T07:29:59;9.60;99.90
7708;DHT22;3896;48.758;8.888;2023-04-08T07:32:25;9.60;99.90
7708;DHT22;3896;48.758;8.888;2023-04-08T07:34:51;9.70;99.90
7708;DHT22;3896;48.758;8.888;2023-04-08T07:37:17;9.70;99.90
7708;DHT22;3896;48.758;8.888;2023-04-08T07:39:43;9.70;99.90
7708;DHT22;3896;48.758;8.888;2023-04-08T07:42:09;9.70;99.90
7708;DHT22;3896;48.758;8.888;2023-04-08T07:44:35;9.70;99.90
7708;DHT22;3896;48.758;8.888;2023-04-08T07:47:00;9.80;99.90
7708;DHT22;3896;48.758;8.888;2023-04-08T07:49:26;9.80;99.90
7708;DHT22;3896;48.758;8.888;2023-04-08T07:51:51;9.80;99.90
7708;DHT22;3896;48.758;8.888;2023-04-08T07:54:17;9.80;99.90
7708;DHT22;3896;48.758;8.888;2023-04-08T07:56:43;9.90;99.90
7708;DHT22;3896;48.758;8.888;2023-04-08T07:59:10;9.90;99.90
7708;DHT22;3896;48.758;8.888;2023-04-08T08:01:36;9.90;99.90
7708;DHT22;3896;48.758;8.888;2023-04-08T08:04:03;10.00;99.90
7708;DHT22;3896;48.758;8.888;2023-04-08T08:06:29;10.00;99.90
7708;DHT22;3896;48.758;8.888;2023-04-08T08:08:56;10.10;99.90
7708;DHT22;3896;48.758;8.888;2023-04-08T08:11:22;10.10;99.90
7708;DHT22;3896;48.758;8.888;2023-04-08T08:13:48;10.10;99.90
7708;DHT22;3896;48.758;8.888;2023-04-08T08:16:13;10.20;99.90
7708;DHT22;3896;48.758;8.888;2023-04-08T08:18:39;10.30;99.90
7708;DHT22;3896;48.758;8.888;2023-04-08T08:21:06;10.30;99.90
7708;DHT22;3896;48.758;8.888;2023-04-08T08:23:32;10.30;99.90
7708;DHT22;3896;48.758;8.888;2023-04-08T08:26:08;10.40;99.90
7708;DHT22;3896;48.758;8.888;2023-04-08T08:28:37;10.50;99.90
7708;DHT22;3896;48.758;8.888;2023-04-08T08:31:03;10.50;99.90
7708;DHT22;3896;48.758;8.888;2023-04-08T08:33:30;10.60;99.90
7708;DHT22;3896;48.758;8.888;2023-04-08T08:35:56;10.70;99.90
7708;DHT22;3896;48.758;8.888;2023-04-08T08:38:22;10.70;99.90
7708;DHT22;3896;48.758;8.888;2023-04-08T08:40:53;10.70;99.90
7708;DHT22;3896;48.758;8.888;2023-04-08T08:43:20;10.80;99.90
7708;DHT22;3896;48.758;8.888;2023-04-08T08:45:46;10.80;99.90
7708;DHT22;3896;48.758;8.888;2023-04-08T08:48:12;10.80;99.90
7708;DHT22;3896;48.758;8.888;2023-04-08T08:50:37;10.90;99.90
7708;DHT22;3896;48.758;8.888;2023-04-08T08:53:03;10.90;99.90
7708;DHT22;3896;48.758;8.888;2023-04-08T08:55:30;11.00;99.90
7708;DHT22;3896;48.758;8.888;2023-04-08T08:58:02;11.00;99.70
7708;DHT22;3896;48.758;8.888;2023-04-08T09:00:36;11.10;99.40
7708;DHT22;3896;48.758;8.888;2023-04-08T09:03:19;11.10;98.80
7708;DHT22;3896;48.758;8.888;2023-04-08T09:05:56;11.20;98.40
7708;DHT22;3896;48.758;8.888;2023-04-08T09:10:48;11.30;97.90
7708;DHT22;3896;48.758;8.888;2023-04-08T09:13:14;11.40;97.80
7708;DHT22;3896;48.758;8.888;2023-04-08T09:18:28;11.50;97.50
7708;DHT22;3896;48.758;8.888;2023-04-08T09:20:54;11.60;96.70
7708;DHT22;3896;48.758;8.888;2023-04-08T09:23:19;11.70;96.70
7708;DHT22;3896;48.758;8.888;2023-04-08T09:25:45;11.80;95.90
7708;DHT22;3896;48.758;8.888;2023-04-08T09:28:20;11.90;95.30
7708;DHT22;3896;48.758;8.888;2023-04-08T09:30:45;12.00;94.60
7708;DHT22;3896;48.758;8.888;2023-04-08T09:33:12;12.10;93.80
7708;DHT22;3896;48.758;8.888;2023-04-08T09:35:37;12.20;93.60
7708;DHT22;3896;48.758;8.888;2023-04-08T09:38:04;12.20;92.80
7708;DHT22;3896;48.758;8.888;2023-04-08T09:40:33;12.30;92.20
7708;DHT22;3896;48.758;8.888;2023-04-08T09:43:08;12.40;91.80
7708;DHT22;3896;48.758;8.888;2023-04-08T09:45:38;12.50;91.50
7708;DHT22;3896;48.758;8.888;2023-04-08T09:48:13;12.70;91.00
7708;DHT22;3896;48.758;8.888;2023-04-08T09:50:49;12.80;90.70
7708;DHT22;3896;48.758;8.888;2023-04-08T09:53:29;12.80;90.10
7708;DHT22;3896;48.758;8.888;2023-04-08T09:55:59;13.00;89.30
7708;DHT22;3896;48.758;8.888;2023-04-08T09:58:28;13.10;87.80
7708;DHT22;3896;48.758;8.888;2023-04-08T10:00:55;13.20;85.80
7708;DHT22;3896;48.758;8.888;2023-04-08T10:03:45;13.30;84.80
7708;DHT22;3896;48.758;8.888;2023-04-08T10:06:12;13.40;83.40
7708;DHT22;3896;48.758;8.888;2023-04-08T10:08:39;13.50;82.40
7708;DHT22;3896;48.758;8.888;2023-04-08T10:11:04;13.60;81.00
7708;DHT22;3896;48.758;8.888;2023-04-08T10:13:31;13.70;79.10
7708;DHT22;3896;48.758;8.888;2023-04-08T10:18:41;13.80;77.40
7708;DHT22;3896;48.758;8.888;2023-04-08T10:23:59;14.00;74.60
7708;DHT22;3896;48.758;8.888;2023-04-08T10:26:50;14.10;73.70
7708;DHT22;3896;48.758;8.888;2023-04-08T10:31:53;14.20;72.10
7708;DHT22;3896;48.758;8.888;2023-04-08T10:34:19;14.30;72.20
7708;DHT22;3896;48.758;8.888;2023-04-08T10:36:46;14.30;71.40
7708;DHT22;3896;48.758;8.888;2023-04-08T10:39:13;14.40;70.90
7708;DHT22;3896;48.758;8.888;2023-04-08T10:41:46;14.50;70.30
7708;DHT22;3896;48.758;8.888;2023-04-08T10:44:17;14.50;69.10
7708;DHT22;3896;48.758;8.888;2023-04-08T10:46:43;14.60;68.20
7708;DHT22;3896;48.758;8.888;2023-04-08T10:49:09;14.70;66.60
7708;DHT22;3896;48.758;8.888;2023-04-08T10:51:38;14.70;67.00
7708;DHT22;3896;48.758;8.888;2023-04-08T10:54:12;14.80;67.20
7708;DHT22;3896;48.758;8.888;2023-04-08T10:56:51;14.80;67.20
7708;DHT22;3896;48.758;8.888;2023-04-08T10:59:30;14.90;67.70
7708;DHT22;3896;48.758;8.888;2023-04-08T11:01:58;14.90;65.50
7708;DHT22;3896;48.758;8.888;2023-04-08T11:04:25;15.00;65.10
7708;DHT22;3896;48.758;8.888;2023-04-08T11:06:51;15.00;64.60
7708;DHT22;3896;48.758;8.888;2023-04-08T11:09:17;15.00;62.70
7708;DHT22;3896;48.758;8.888;2023-04-08T11:11:43;15.00;62.50
7708;DHT22;3896;48.758;8.888;2023-04-08T11:14:09;14.90;62.10
7708;DHT22;3896;48.758;8.888;2023-04-08T11:16:39;14.90;62.00
7708;DHT22;3896;48.758;8.888;2023-04-08T11:19:13;14.90;62.40
7708;DHT22;3896;48.758;8.888;2023-04-08T11:21:39;14.90;62.20
7708;DHT22;3896;48.758;8.888;2023-04-08T11:24:08;14.90;62.30
7708;DHT22;3896;48.758;8.888;2023-04-08T11:26:34;14.90;62.20
7708;DHT22;3896;48.758;8.888;2023-04-08T11:29:01;14.90;61.80
7708;DHT22;3896;48.758;8.888;2023-04-08T11:31:27;14.80;61.60
7708;DHT22;3896;48.758;8.888;2023-04-08T11:33:53;14.80;60.90
7708;DHT22;3896;48.758;8.888;2023-04-08T11:36:23;14.80;61.00
7708;DHT22;3896;48.758;8.888;2023-04-08T11:38:49;14.80;60.80
7708;DHT22;3896;48.758;8.888;2023-04-08T11:41:17;14.70;60.70
7708;DHT22;3896;48.758;8.888;2023-04-08T11:43:53;14.70;60.50
7708;DHT22;3896;48.758;8.888;2023-04-08T11:46:19;14.60;59.80
7708;DHT22;3896;48.758;8.888;2023-04-08T11:48:59;14.60;59.60
7708;DHT22;3896;48.758;8.888;2023-04-08T11:51:25;14.60;59.60
7708;DHT22;3896;48.758;8.888;2023-04-08T11:53:51;14.50;59.50
7708;DHT22;3896;48.758;8.888;2023-04-08T11:56:18;14.50;59.70
7708;DHT22;3896;48.758;8.888;2023-04-08T11:58:44;14.50;59.80
7708;DHT22;3896;48.758;8.888;2023-04-08T12:01:10;14.50;59.60
7708;DHT22;3896;48.758;8.888;2023-04-08T12:03:36;14.50;59.60
7708;DHT22;3896;48.758;8.888;2023-04-08T12:06:02;14.40;59.50
7708;DHT22;3896;48.758;8.888;2023-04-08T12:08:29;14.40;59.60
7708;DHT22;3896;48.758;8.888;2023-04-08T12:10:55;14.40;59.40
7708;DHT22;3896;48.758;8.888;2023-04-08T12:13:21;14.40;59.50
7708;DHT22;3896;48.758;8.888;2023-04-08T12:15:48;14.30;59.10
7708;DHT22;3896;48.758;8.888;2023-04-08T12:18:14;14.30;58.80
7708;DHT22;3896;48.758;8.888;2023-04-08T12:20:40;14.30;58.00
7708;DHT22;3896;48.758;8.888;2023-04-08T12:23:07;14.20;58.10
7708;DHT22;3896;48.758;8.888;2023-04-08T12:25:33;14.20;58.00
7708;DHT22;3896;48.758;8.888;2023-04-08T12:27:58;14.10;57.90
7708;DHT22;3896;48.758;8.888;2023-04-08T12:30:24;14.10;57.80
7708;DHT22;3896;48.758;8.888;2023-04-08T12:32:50;14.10;59.00
7708;DHT22;3896;48.758;8.888;2023-04-08T12:35:15;14.10;59.30
7708;DHT22;3896;48.758;8.888;2023-04-08T12:37:41;14.10;59.30
7708;DHT22;3896;48.758;8.888;2023-04-08T12:40:07;14.10;58.80
7708;DHT22;3896;48.758;8.888;2023-04-08T12:42:32;14.00;58.10
7708;DHT22;3896;48.758;8.888;2023-04-08T12:45:00;14.00;58.20
7708;DHT22;3896;48.758;8.888;2023-04-08T12:47:25;14.00;58.30
7708;DHT22;3896;48.758;8.888;2023-04-08T12:49:51;14.00;58.00
7708;DHT22;3896;48.758;8.888;2023-04-08T12:52:17;14.00;58.00
7708;DHT22;3896;48.758;8.888;2023-04-08T12:54:44;14.00;58.10
7708;DHT22;3896;48.758;8.888;2023-04-08T12:57:09;14.00;57.80
7708;DHT22;3896;48.758;8.888;2023-04-08T12:59:35;14.00;57.70
7708;DHT22;3896;48.758;8.888;2023-04-08T13:02:03;13.90;57.80
7708;DHT22;3896;48.758;8.888;2023-04-08T13:04:30;14.00;57.90
7708;DHT22;3896;48.758;8.888;2023-04-08T13:06:55;14.00;58.20
7708;DHT22;3896;48.758;8.888;2023-04-08T13:09:21;13.90;58.10
7708;DHT22;3896;48.758;8.888;2023-04-08T13:11:47;14.00;58.30
7708;DHT22;3896;48.758;8.888;2023-04-08T13:14:12;14.00;58.30
7708;DHT22;3896;48.758;8.888;2023-04-08T13:16:38;14.10;58.20
7708;DHT22;3896;48.758;8.888;2023-04-08T13:19:03;14.10;58.10
7708;DHT22;3896;48.758;8.888;2023-04-08T13:21:29;14.10;57.90
7708;DHT22;3896;48.758;8.888;2023-04-08T13:23:55;14.10;58.00
7708;DHT22;3896;48.758;8.888;2023-04-08T13:26:21;14.20;57.90
7708;DHT22;3896;48.758;8.888;2023-04-08T13:28:46;14.20;57.30
7708;DHT22;3896;48.758;8.888;2023-04-08T13:31:13;14.30;57.00
7708;DHT22;3896;48.758;8.888;2023-04-08T13:33:38;14.40;56.70
7708;DHT22;3896;48.758;8.888;2023-04-08T13:36:04;14.40;56.20
7708;DHT22;3896;48.758;8.888;2023-04-08T13:38:30;14.50;56.10
7708;DHT22;3896;48.758;8.888;2023-04-08T13:40:55;14.50;55.70
7708;DHT22;3896;48.758;8.888;2023-04-08T13:43:23;14.60;55.40
7708;DHT22;3896;48.758;8.888;2023-04-08T13:45:48;14.60;55.60
7708;DHT22;3896;48.758;8.888;2023-04-08T13:48:14;14.70;55.50
7708;DHT22;3896;48.758;8.888;2023-04-08T13:50:40;14.70;54.80
7708;DHT22;3896;48.758;8.888;2023-04-08T13:53:06;14.80;54.70
7708;DHT22;3896;48.758;8.888;2023-04-08T13:55:32;14.80;54.50
7708;DHT22;3896;48.758;8.888;2023-04-08T13:57:57;14.80;54.70
7708;DHT22;3896;48.758;8.888;2023-04-08T14:00:23;14.80;54.60
7708;DHT22;3896;48.758;8.888;2023-04-08T14:02:49;14.80;54.50
7708;DHT22;3896;48.758;8.888;2023-04-08T14:05:15;14.80;54.40
7708;DHT22;3896;48.758;8.888;2023-04-08T14:07:41;14.90;54.00
7708;DHT22;3896;48.758;8.888;2023-04-08T14:10:07;14.90;53.80
7708;DHT22;3896;48.758;8.888;2023-04-08T14:12:33;14.90;53.90
7708;DHT22;3896;48.758;8.888;2023-04-08T14:14:58;14.90;54.00
7708;DHT22;3896;48.758;8.888;2023-04-08T14:17:24;14.90;54.20
7708;DHT22;3896;48.758;8.888;2023-04-08T14:19:50;14.90;53.80
7708;DHT22;3896;48.758;8.888;2023-04-08T14:22:16;14.90;53.70
7708;DHT22;3896;48.758;8.888;2023-04-08T14:24:43;14.90;53.70
7708;DHT22;3896;48.758;8.888;2023-04-08T14:27:08;14.90;53.60
7708;DHT22;3896;48.758;8.888;2023-04-08T14:29:34;14.90;53.80
7708;DHT22;3896;48.758;8.888;2023-04-08T14:32:00;14.90;53.90
7708;DHT22;3896;48.758;8.888;2023-04-08T14:34:25;14.90;54.20
7708;DHT22;3896;48.758;8.888;2023-04-08T14:36:51;14.90;54.40
7708;DHT22;3896;48.758;8.888;2023-04-08T14:39:17;14.90;54.40
7708;DHT22;3896;48.758;8.888;2023-04-08T14:41:42;14.90;54.80
7708;DHT22;3896;48.758;8.888;2023-04-08T14:44:08;14.90;54.60
7708;DHT22;3896;48.758;8.888;2023-04-08T14:46:34;14.90;54.70
7708;DHT22;3896;48.758;8.888;2023-04-08T14:48:59;14.90;54.60
7708;DHT22;3896;48.758;8.888;2023-04-08T14:51:25;15.00;54.60
7708;DHT22;3896;48.758;8.888;2023-04-08T14:53:51;15.10;54.40
7708;DHT22;3896;48.758;8.888;2023-04-08T14:56:16;15.10;54.20
7708;DHT22;3896;48.758;8.888;2023-04-08T14:58:42;15.20;54.10
7708;DHT22;3896;48.758;8.888;2023-04-08T15:01:07;15.20;53.80
7708;DHT22;3896;48.758;8.888;2023-04-08T15:03:34;15.30;53.80
7708;DHT22;3896;48.758;8.888;2023-04-08T15:05:59;15.30;53.60
7708;DHT22;3896;48.758;8.888;2023-04-08T15:08:26;15.40;53.90
7708;DHT22;3896;48.758;8.888;2023-04-08T15:10:51;15.50;53.80
7708;DHT22;3896;48.758;8.888;2023-04-08T15:13:17;15.70;53.80
7708;DHT22;3896;48.758;8.888;2023-04-08T15:15:42;15.80;53.60
7708;DHT22;3896;48.758;8.888;2023-04-08T15:18:08;15.90;53.40
7708;DHT22;3896;48.758;8.888;2023-04-08T15:20:35;16.00;52.80
7708;DHT22;3896;48.758;8.888;2023-04-08T15:23:02;16.10;52.20
7708;DHT22;3896;48.758;8.888;2023-04-08T15:25:27;16.10;51.90
7708;DHT22;3896;48.758;8.888;2023-04-08T15:27:53;16.10;51.90
7708;DHT22;3896;48.758;8.888;2023-04-08T15:30:19;16.00;52.00
7708;DHT22;3896;48.758;8.888;2023-04-08T15:32:50;16.00;52.10
7708;DHT22;3896;48.758;8.888;2023-04-08T15:35:16;15.90;52.10
7708;DHT22;3896;48.758;8.888;2023-04-08T15:37:41;15.90;52.20
7708;DHT22;3896;48.758;8.888;2023-04-08T15:40:07;15.80;52.10
7708;DHT22;3896;48.758;8.888;2023-04-08T15:42:33;15.80;52.50
7708;DHT22;3896;48.758;8.888;2023-04-08T15:44:59;15.70;52.90
7708;DHT22;3896;48.758;8.888;2023-04-08T15:47:25;15.70;53.10
7708;DHT22;3896;48.758;8.888;2023-04-08T15:49:51;15.60;53.30
7708;DHT22;3896;48.758;8.888;2023-04-08T15:52:17;15.50;53.60
7708;DHT22;3896;48.758;8.888;2023-04-08T15:54:42;15.50;54.70
7708;DHT22;3896;48.758;8.888;2023-04-08T15:57:08;15.40;55.10
7708;DHT22;3896;48.758;8.888;2023-04-08T15:59:34;15.40;55.30
7708;DHT22;3896;48.758;8.888;2023-04-08T16:02:00;15.30;55.40
7708;DHT22;3896;48.758;8.888;2023-04-08T16:04:25;15.30;55.50
7708;DHT22;3896;48.758;8.888;2023-04-08T16:06:52;15.20;55.60
7708;DHT22;3896;48.758;8.888;2023-04-08T16:09:18;15.20;55.60
7708;DHT22;3896;48.758;8.888;2023-04-08T16:11:49;15.10;55.60
7708;DHT22;3896;48.758;8.888;2023-04-08T16:14:15;15.00;55.90
7708;DHT22;3896;48.758;8.888;2023-04-08T16:16:41;15.00;56.10
7708;DHT22;3896;48.758;8.888;2023-04-08T16:19:07;14.90;56.20
7708;DHT22;3896;48.758;8.888;2023-04-08T16:21:33;14.90;56.50
7708;DHT22;3896;48.758;8.888;2023-04-08T16:23:59;14.90;56.40
7708;DHT22;3896;48.758;8.888;2023-04-08T16:26:25;14.80;56.30